createdAt,value
2023-05-10T00:01:22.437Z,2.20
2023-05-10T00:03:49.098Z,2.08
2023-05-10T00:06:15.834Z,2.30
2023-05-10T00:08:42.504Z,2.47
2023-05-10T00:11:09.136Z,2.30
2023-05-10T00:13:35.759Z,2.40
2023-05-10T00:16:02.424Z,2.25
2023-05-10T00:18:29.021Z,2.30
2023-05-10T00:20:55.588Z,2.38
2023-05-10T00:23:22.172Z,2.75
2023-05-10T00:25:48.870Z,2.35
2023-05-10T00:28:16.893Z,2.38
2023-05-10T00:30:43.445Z,2.72
2023-05-10T00:33:10.159Z,2.70
2023-05-10T00:35:37.080Z,2.42
2023-05-10T00:38:03.638Z,2.70
2023-05-10T00:40:34.180Z,2.30
2023-05-10T00:43:02.493Z,2.50
2023-05-10T00:45:29.206Z,2.60
2023-05-10T00:47:57.107Z,2.58
2023-05-10T00:50:24.425Z,2.65
2023-05-10T00:52:51.402Z,2.70
2023-05-10T00:55:19.165Z,2.45
2023-05-10T00:57:46.722Z,2.25
2023-05-10T01:00:14.153Z,2.30
2023-05-10T01:02:41.748Z,2.45
2023-05-10T01:05:08.659Z,2.47
2023-05-10T01:07:35.472Z,2.42
2023-05-10T01:10:02.347Z,3.05
2023-05-10T01:12:29.015Z,2.42
2023-05-10T01:14:56.091Z,2.45
2023-05-10T01:17:23.608Z,3.03
2023-05-10T01:19:50.826Z,2.90
2023-05-10T01:22:45.599Z,2.70
2023-05-10T01:25:46.146Z,2.53
2023-05-10T01:28:27.241Z,2.85
2023-05-10T01:31:10.706Z,2.50
2023-05-10T01:33:47.659Z,2.72
2023-05-10T01:36:30.412Z,2.72
2023-05-10T01:39:00.358Z,2.95
2023-05-10T01:41:53.146Z,2.92
2023-05-10T01:44:40.780Z,2.75
2023-05-10T01:47:12.454Z,2.88
2023-05-10T01:49:48.456Z,2.38
2023-05-10T01:52:18.484Z,2.47
2023-05-10T01:54:54.375Z,2.80
2023-05-10T01:57:23.289Z,2.78
2023-05-10T01:59:51.816Z,2.53
2023-05-10T02:02:21.132Z,2.55
2023-05-10T02:04:50.552Z,2.75
2023-05-10T02:07:19.119Z,2.55
2023-05-10T02:09:50.124Z,2.35
2023-05-10T02:12:18.286Z,2.75
2023-05-10T02:14:46.306Z,2.95
2023-05-10T02:17:13.876Z,2.63
2023-05-10T02:19:42.778Z,2.72
2023-05-10T02:22:10.727Z,3.00
2023-05-10T02:24:38.544Z,2.80
2023-05-10T02:27:06.269Z,2.92
2023-05-10T02:29:34.559Z,2.72
2023-05-10T02:32:02.734Z,2.83
2023-05-10T02:34:30.936Z,2.58
2023-05-10T02:36:58.546Z,2.58
2023-05-10T02:39:29.636Z,2.60
2023-05-10T02:41:58.557Z,3.20
2023-05-10T02:44:28.188Z,2.97
2023-05-10T02:46:57.093Z,2.30
2023-05-10T02:49:23.749Z,2.70
2023-05-10T02:51:58.265Z,2.70
2023-05-10T02:54:30.855Z,2.75
2023-05-10T02:57:04.584Z,2.53
2023-05-10T02:59:32.083Z,3.13
2023-05-10T03:01:58.863Z,3.05
2023-05-10T03:04:25.483Z,2.30
2023-05-10T03:06:54.382Z,2.70
2023-05-10T03:09:22.187Z,2.97
2023-05-10T03:12:02.733Z,2.70
2023-05-10T03:14:51.407Z,3.13
2023-05-10T03:17:30.395Z,2.55
2023-05-10T03:20:05.655Z,2.50
2023-05-10T03:22:39.471Z,2.90
2023-05-10T03:25:09.424Z,2.93
2023-05-10T03:27:40.076Z,2.65
2023-05-10T03:30:13.136Z,2.45
2023-05-10T03:32:40.194Z,2.70
2023-05-10T03:35:10.864Z,2.35
2023-05-10T03:37:37.449Z,2.50
2023-05-10T03:40:04.747Z,2.97
2023-05-10T03:42:31.633Z,2.83
2023-05-10T03:44:58.246Z,2.70
2023-05-10T03:47:24.967Z,2.45
2023-05-10T03:49:51.631Z,2.70
2023-05-10T03:52:18.238Z,2.78
2023-05-10T03:54:44.824Z,2.75
2023-05-10T03:57:11.510Z,2.78
2023-05-10T03:59:38.118Z,2.92
2023-05-10T04:02:04.738Z,3.28
2023-05-10T04:04:35.370Z,2.92
2023-05-10T04:07:01.958Z,2.92
2023-05-10T04:09:28.540Z,2.80
2023-05-10T04:11:57.448Z,3.05
2023-05-10T04:14:27.095Z,3.03
2023-05-10T04:16:53.827Z,3.28
2023-05-10T04:19:20.452Z,3.33
2023-05-10T04:21:46.987Z,3.17
2023-05-10T04:24:15.915Z,3.03
2023-05-10T04:26:55.486Z,2.70
2023-05-10T04:29:23.141Z,3.00
2023-05-10T04:31:49.993Z,3.35
2023-05-10T04:34:16.648Z,3.05
2023-05-10T04:36:43.230Z,2.92
2023-05-10T04:39:12.999Z,2.50
2023-05-10T04:41:39.783Z,3.00
2023-05-10T04:44:06.627Z,2.97
2023-05-10T04:46:33.838Z,3.67
2023-05-10T04:49:00.482Z,3.15
2023-05-10T04:51:29.367Z,3.05
2023-05-10T04:54:05.169Z,2.95
2023-05-10T04:56:32.881Z,2.67
2023-05-10T04:58:59.550Z,2.80
2023-05-10T05:01:26.197Z,3.20
2023-05-10T05:03:54.177Z,3.42
2023-05-10T05:06:22.173Z,3.05
2023-05-10T05:08:50.518Z,3.13
2023-05-10T05:11:18.154Z,3.30
2023-05-10T05:13:44.899Z,3.08
2023-05-10T05:16:12.538Z,3.45
2023-05-10T05:18:39.555Z,2.90
2023-05-10T05:21:19.909Z,3.10
2023-05-10T05:23:47.300Z,3.35
2023-05-10T05:26:13.944Z,3.10
2023-05-10T05:28:40.596Z,3.38
2023-05-10T05:31:10.274Z,2.97
2023-05-10T05:33:37.780Z,3.33
2023-05-10T05:36:05.954Z,3.17
2023-05-10T05:38:32.667Z,3.05
2023-05-10T05:40:59.280Z,2.60
2023-05-10T05:43:30.738Z,2.72
2023-05-10T05:45:59.145Z,2.50
2023-05-10T05:48:26.023Z,2.60
2023-05-10T05:50:56.608Z,2.65
2023-05-10T05:53:24.240Z,2.53
2023-05-10T05:55:59.100Z,2.50
2023-05-10T05:58:29.078Z,2.03
2023-05-10T06:00:55.700Z,2.42
2023-05-10T06:03:22.445Z,2.05
2023-05-10T06:05:49.440Z,2.10
2023-05-10T06:08:16.194Z,2.38
2023-05-10T06:10:42.861Z,2.30
2023-05-10T06:13:09.693Z,2.33
2023-05-10T06:15:36.505Z,1.90
2023-05-10T06:18:03.226Z,2.60
2023-05-10T06:20:30.142Z,2.00
2023-05-10T06:22:56.749Z,1.92
2023-05-10T06:25:23.360Z,2.10
2023-05-10T06:27:52.916Z,2.38
2023-05-10T06:30:20.488Z,2.60
2023-05-10T06:32:47.248Z,2.20
2023-05-10T06:35:13.961Z,2.20
2023-05-10T06:37:40.763Z,2.05
2023-05-10T06:40:08.187Z,2.03
2023-05-10T06:42:34.782Z,2.50
2023-05-10T06:45:01.332Z,2.13
2023-05-10T06:47:28.043Z,2.08
2023-05-10T06:49:54.795Z,1.92
2023-05-10T06:52:21.389Z,1.95
2023-05-10T06:54:50.673Z,1.98
2023-05-10T06:57:31.245Z,2.38
2023-05-10T06:59:58.885Z,1.45
2023-05-10T07:02:28.075Z,1.70
2023-05-10T07:04:59.507Z,1.60
2023-05-10T07:07:27.579Z,1.67
2023-05-10T07:09:54.374Z,1.65
2023-05-10T07:12:21.080Z,1.48
2023-05-10T07:14:47.720Z,1.70
2023-05-10T07:17:14.344Z,1.60
2023-05-10T07:19:41.037Z,2.30
2023-05-10T07:22:10.748Z,2.00
2023-05-10T07:24:37.513Z,1.60
2023-05-10T07:27:04.120Z,1.73
2023-05-10T07:29:30.923Z,1.55
2023-05-10T07:31:58.893Z,1.35
2023-05-10T07:34:26.352Z,1.40
2023-05-10T07:36:56.253Z,2.00
2023-05-10T07:39:27.498Z,1.80
2023-05-10T07:41:59.087Z,1.70
2023-05-10T07:44:25.698Z,2.55
2023-05-10T07:46:52.434Z,1.70
2023-05-10T07:49:26.208Z,1.90
2023-05-10T07:51:54.980Z,2.17
2023-05-10T07:54:21.679Z,2.03
2023-05-10T07:56:48.406Z,1.73
2023-05-10T07:59:18.819Z,1.90
2023-05-10T08:01:45.893Z,1.92
2023-05-10T08:04:12.812Z,1.40
2023-05-10T08:06:40.546Z,1.65
2023-05-10T08:09:07.348Z,1.50
2023-05-10T08:11:35.120Z,1.90
2023-05-10T08:14:02.102Z,1.80
2023-05-10T08:16:28.848Z,3.28
2023-05-10T08:18:56.471Z,1.30
2023-05-10T08:21:23.235Z,1.40
2023-05-10T08:23:50.143Z,1.52
2023-05-10T08:26:16.793Z,1.48
2023-05-10T08:28:43.408Z,1.63
2023-05-10T08:31:10.044Z,1.73
2023-05-10T08:33:36.665Z,1.75
2023-05-10T08:36:03.495Z,2.00
2023-05-10T08:38:30.073Z,1.98
2023-05-10T08:41:00.163Z,1.45
2023-05-10T08:43:31.396Z,1.83
2023-05-10T08:46:07.384Z,1.95
2023-05-10T08:48:35.855Z,1.90
2023-05-10T08:51:04.687Z,1.67
2023-05-10T08:53:34.386Z,1.63
2023-05-10T08:56:03.155Z,1.42
2023-05-10T08:58:33.039Z,1.70
2023-05-10T09:01:00.737Z,1.75
2023-05-10T09:03:30.643Z,1.58
2023-05-10T09:05:57.647Z,1.90
2023-05-10T09:08:28.376Z,1.70
2023-05-10T09:11:00.242Z,1.42
2023-05-10T09:13:27.180Z,2.00
2023-05-10T09:15:54.159Z,1.60
2023-05-10T09:18:21.110Z,1.58
2023-05-10T09:20:48.102Z,1.50
2023-05-10T09:23:17.513Z,1.55
2023-05-10T09:25:44.227Z,1.60
2023-05-10T09:28:11.924Z,1.60
2023-05-10T09:30:38.676Z,1.60
2023-05-10T09:33:05.453Z,1.80
2023-05-10T09:35:33.857Z,1.70
2023-05-10T09:38:11.745Z,1.75
2023-05-10T09:40:38.373Z,1.77
2023-05-10T09:43:08.315Z,1.52
2023-05-10T09:45:39.362Z,1.90
2023-05-10T09:48:07.091Z,1.83
2023-05-10T09:50:35.236Z,1.50
2023-05-10T09:53:04.548Z,1.70
2023-05-10T09:55:37.192Z,1.80
2023-05-10T09:58:03.822Z,2.95
2023-05-10T10:00:38.940Z,2.17
2023-05-10T10:03:06.525Z,2.13
2023-05-10T10:05:35.989Z,1.80
2023-05-10T10:08:06.574Z,1.70
2023-05-10T10:10:39.808Z,1.60
2023-05-10T10:13:06.595Z,1.60
2023-05-10T10:15:35.019Z,1.40
2023-05-10T10:18:02.557Z,1.90
2023-05-10T10:20:29.453Z,1.98
2023-05-10T10:22:56.120Z,1.60
2023-05-10T10:25:23.406Z,1.65
2023-05-10T10:27:52.783Z,1.70
2023-05-10T10:31:03.765Z,1.80
2023-05-10T10:33:51.949Z,2.00
2023-05-10T10:36:21.439Z,1.70
2023-05-10T10:38:47.935Z,1.50
2023-05-10T10:41:37.027Z,2.17
2023-05-10T10:44:26.588Z,1.67
2023-05-10T10:47:31.085Z,1.60
2023-05-10T10:50:01.191Z,1.60
2023-05-10T10:52:34.302Z,1.67
2023-05-10T10:55:14.822Z,1.77
2023-05-10T10:57:41.459Z,2.85
2023-05-10T11:00:23.646Z,1.98
2023-05-10T11:02:50.384Z,3.38
2023-05-10T11:05:39.172Z,2.20
2023-05-10T11:08:11.823Z,2.42
2023-05-10T11:10:41.724Z,1.70
2023-05-10T11:13:10.337Z,2.13
2023-05-10T11:15:40.701Z,1.83
2023-05-10T11:18:29.829Z,2.13
2023-05-10T11:21:06.554Z,1.83
2023-05-10T11:24:09.212Z,2.42
2023-05-10T11:26:36.770Z,1.95
2023-05-10T11:29:05.529Z,1.48
2023-05-10T11:31:32.259Z,1.70
2023-05-10T11:34:00.677Z,1.70
2023-05-10T11:36:29.882Z,2.03
2023-05-10T11:38:57.934Z,1.50
2023-05-10T11:41:33.530Z,1.70
2023-05-10T11:44:00.453Z,1.98
2023-05-10T11:46:29.326Z,1.88
2023-05-10T11:49:03.107Z,1.83
2023-05-10T11:51:37.261Z,1.70
2023-05-10T11:54:13.002Z,1.50
2023-05-10T11:56:40.987Z,1.80
2023-05-10T11:59:09.033Z,1.58
2023-05-10T12:01:37.753Z,1.85
2023-05-10T12:04:04.650Z,1.63
2023-05-10T12:06:33.479Z,1.80
2023-05-10T12:09:00.354Z,1.90
2023-05-10T12:11:28.984Z,1.90
2023-05-10T12:13:58.910Z,1.58
2023-05-10T12:16:29.502Z,1.70
2023-05-10T12:19:04.641Z,1.73
2023-05-10T12:21:34.984Z,1.50
2023-05-10T12:24:06.340Z,1.50
2023-05-10T12:26:38.759Z,2.00
2023-05-10T12:29:19.935Z,1.50
2023-05-10T12:31:57.032Z,1.77
2023-05-10T12:34:28.215Z,1.58
2023-05-10T12:36:58.557Z,1.77
2023-05-10T12:39:25.954Z,2.05
2023-05-10T12:41:53.444Z,1.50
2023-05-10T12:44:22.782Z,2.25
2023-05-10T12:46:52.313Z,1.58
2023-05-10T12:49:20.615Z,1.80
2023-05-10T12:51:49.952Z,1.50
2023-05-10T12:54:16.532Z,1.73
2023-05-10T12:56:43.821Z,1.73
2023-05-10T12:59:11.901Z,2.03
2023-05-10T13:01:38.611Z,1.52
2023-05-10T13:04:14.184Z,1.75
2023-05-10T13:06:40.775Z,1.70
2023-05-10T13:09:08.010Z,1.55
2023-05-10T13:11:34.835Z,2.60
2023-05-10T13:14:01.470Z,1.75
2023-05-10T13:16:28.311Z,1.83
2023-05-10T13:18:57.624Z,1.83
2023-05-10T13:21:25.631Z,1.98
2023-05-10T13:23:52.372Z,1.80
2023-05-10T13:26:20.092Z,1.98
2023-05-10T13:28:47.062Z,1.90
2023-05-10T13:31:13.734Z,1.60
2023-05-10T13:33:40.631Z,1.95
2023-05-10T13:36:07.725Z,1.60
2023-05-10T13:38:36.396Z,1.60
2023-05-10T13:41:02.975Z,1.55
2023-05-10T13:43:32.717Z,1.65
2023-05-10T13:45:59.452Z,1.65
2023-05-10T13:48:26.149Z,1.30
2023-05-10T13:50:52.821Z,1.45
2023-05-10T13:53:22.221Z,1.67
2023-05-10T13:55:50.755Z,1.40
2023-05-10T13:58:17.501Z,1.25
2023-05-10T14:00:46.811Z,1.50
2023-05-10T14:03:16.318Z,1.70
2023-05-10T14:05:42.966Z,3.40
2023-05-10T14:08:10.983Z,2.00
2023-05-10T14:10:38.022Z,2.10
2023-05-10T14:13:04.609Z,1.48
2023-05-10T14:15:34.333Z,1.73
2023-05-10T14:18:03.267Z,1.70
2023-05-10T14:20:32.116Z,1.48
2023-05-10T14:23:01.420Z,1.70
2023-05-10T14:25:28.131Z,2.00
2023-05-10T14:27:55.731Z,1.38
2023-05-10T14:30:22.508Z,1.70
2023-05-10T14:32:49.171Z,1.70
2023-05-10T14:35:19.662Z,1.30
2023-05-10T14:37:47.966Z,1.55
2023-05-10T14:40:16.279Z,2.17
2023-05-10T14:42:43.541Z,1.70
2023-05-10T14:45:13.192Z,1.55
2023-05-10T14:47:40.914Z,1.70
2023-05-10T14:50:08.093Z,1.40
2023-05-10T14:52:34.683Z,2.05
2023-05-10T14:55:02.300Z,1.70
2023-05-10T14:57:30.677Z,1.60
2023-05-10T14:59:58.081Z,1.70
2023-05-10T15:02:25.226Z,1.80
2023-05-10T15:04:54.902Z,1.50
2023-05-10T15:07:21.899Z,1.33
2023-05-10T15:09:48.531Z,1.52
2023-05-10T15:12:15.105Z,1.60
2023-05-10T15:14:41.712Z,1.38
2023-05-10T15:17:08.831Z,1.80
2023-05-10T15:19:35.441Z,2.00
2023-05-10T15:22:02.101Z,1.50
2023-05-10T15:24:30.922Z,2.08
2023-05-10T15:26:57.469Z,2.00
2023-05-10T15:29:24.118Z,1.40
2023-05-10T15:31:52.096Z,1.77
2023-05-10T15:34:21.732Z,1.58
2023-05-10T15:36:48.353Z,1.75
2023-05-10T15:39:14.967Z,1.92
2023-05-10T15:41:43.121Z,1.85
2023-05-10T15:44:09.677Z,1.88
2023-05-10T15:46:39.295Z,1.60
2023-05-10T15:49:06.824Z,1.45
2023-05-10T15:51:36.847Z,1.42
2023-05-10T15:54:07.613Z,1.55
2023-05-10T15:56:35.377Z,1.70
2023-05-10T15:59:02.183Z,1.30
2023-05-10T16:01:29.219Z,1.20
2023-05-10T16:06:22.615Z,1.55
2023-05-10T16:08:49.292Z,1.90
2023-05-10T16:11:16.068Z,1.60
2023-05-10T16:13:42.719Z,1.80
2023-05-10T16:16:09.506Z,1.30
2023-05-10T16:18:36.424Z,1.75
2023-05-10T16:21:03.382Z,1.65
2023-05-10T16:23:30.752Z,1.80
2023-05-10T16:25:57.353Z,1.98
2023-05-10T16:28:23.967Z,2.20
2023-05-10T16:30:51.347Z,2.15
2023-05-10T16:33:17.967Z,1.88
2023-05-10T16:35:44.607Z,1.80
2023-05-10T16:38:11.431Z,1.95
2023-05-10T16:40:38.176Z,1.65
2023-05-10T16:43:04.796Z,1.52
2023-05-10T16:45:32.745Z,1.60
2023-05-10T16:48:02.381Z,2.08
2023-05-10T16:50:29.000Z,2.00
2023-05-10T16:52:55.601Z,1.73
2023-05-10T16:55:24.777Z,1.70
2023-05-10T16:57:52.730Z,2.85
2023-05-10T17:00:20.965Z,2.25
2023-05-10T17:02:47.719Z,2.05
2023-05-10T17:05:14.555Z,1.80
2023-05-10T17:07:41.326Z,2.13
2023-05-10T17:10:08.434Z,2.00
2023-05-10T17:12:35.205Z,1.90
2023-05-10T17:15:01.954Z,2.00
2023-05-10T17:17:28.804Z,2.00
2023-05-10T17:19:55.944Z,1.80
2023-05-10T17:22:22.557Z,1.88
2023-05-10T17:24:51.438Z,1.90
2023-05-10T17:27:18.385Z,1.67
2023-05-10T17:29:45.081Z,2.08
2023-05-10T17:32:11.693Z,2.05
2023-05-10T17:34:39.000Z,2.25
2023-05-10T17:37:05.638Z,1.90
2023-05-10T17:39:32.277Z,1.95
2023-05-10T17:41:58.945Z,1.98
2023-05-10T17:44:26.075Z,2.25
2023-05-10T17:46:52.653Z,2.47
2023-05-10T17:49:19.326Z,2.08
2023-05-10T17:51:48.168Z,2.60
2023-05-10T17:54:15.213Z,2.17
2023-05-10T17:56:42.108Z,2.75
2023-05-10T17:59:08.882Z,2.38
2023-05-10T18:01:35.994Z,5.80
2023-05-10T18:04:02.715Z,4.55
2023-05-10T18:06:29.413Z,4.60
2023-05-10T18:08:56.258Z,4.40
2023-05-10T18:11:22.991Z,3.50
2023-05-10T18:13:49.622Z,3.45
2023-05-10T18:16:16.296Z,3.00
2023-05-10T18:18:42.957Z,3.05
2023-05-10T18:21:09.625Z,3.38
2023-05-10T18:23:36.231Z,2.65
2023-05-10T18:26:06.264Z,3.00
2023-05-10T18:28:35.119Z,2.83
2023-05-10T18:31:01.894Z,2.90
2023-05-10T18:33:28.682Z,2.83
2023-05-10T18:35:55.327Z,2.47
2023-05-10T18:38:22.161Z,2.40
2023-05-10T18:40:48.773Z,2.28
2023-05-10T18:43:15.407Z,3.20
2023-05-10T18:45:42.072Z,2.70
2023-05-10T18:48:08.706Z,2.30
2023-05-10T18:50:35.297Z,2.53
2023-05-10T18:53:02.226Z,2.60
2023-05-10T18:55:28.858Z,2.50
2023-05-10T18:57:55.525Z,3.10
2023-05-10T19:00:22.275Z,3.17
2023-05-10T19:02:48.999Z,3.08
2023-05-10T19:05:16.299Z,2.90
2023-05-10T19:07:44.022Z,3.65
2023-05-10T19:10:12.750Z,3.60
2023-05-10T19:12:41.378Z,3.13
2023-05-10T19:15:08.893Z,3.30
2023-05-10T19:17:36.917Z,3.03
2023-05-10T19:20:05.884Z,2.63
2023-05-10T19:22:45.548Z,3.03
2023-05-10T19:25:21.074Z,3.30
2023-05-10T19:27:47.813Z,2.80
2023-05-10T19:30:14.447Z,2.50
2023-05-10T19:32:44.220Z,3.13
2023-05-10T19:35:12.721Z,3.40
2023-05-10T19:37:39.325Z,4.20
2023-05-10T19:40:06.820Z,4.05
2023-05-10T19:42:33.590Z,3.58
2023-05-10T19:45:00.269Z,2.63
2023-05-10T19:47:26.995Z,2.70
2023-05-10T19:49:54.125Z,2.58
2023-05-10T19:52:20.848Z,2.30
2023-05-10T19:54:47.551Z,2.42
2023-05-10T19:57:14.212Z,2.95
2023-05-10T19:59:40.887Z,3.13
2023-05-10T20:02:09.506Z,2.92
2023-05-10T20:04:36.197Z,2.63
2023-05-10T20:07:02.933Z,3.08
2023-05-10T20:09:29.509Z,2.58
2023-05-10T20:11:56.109Z,2.63
2023-05-10T20:14:22.672Z,2.22
2023-05-10T20:16:49.281Z,2.65
2023-05-10T20:19:15.970Z,2.90
2023-05-10T20:21:42.858Z,3.20
2023-05-10T20:24:09.650Z,2.78
2023-05-10T20:26:36.262Z,3.00
2023-05-10T20:29:02.933Z,6.95
2023-05-10T20:31:29.515Z,3.90
2023-05-10T20:33:56.169Z,2.90
2023-05-10T20:36:22.826Z,2.53
2023-05-10T20:38:49.415Z,2.40
2023-05-10T20:41:16.133Z,2.40
2023-05-10T20:43:42.705Z,2.70
2023-05-10T20:46:09.333Z,2.50
2023-05-10T20:48:36.015Z,2.65
2023-05-10T20:51:05.294Z,2.53
2023-05-10T20:53:31.898Z,2.40
2023-05-10T20:55:58.595Z,2.58
2023-05-10T20:58:25.174Z,2.90
2023-05-10T21:00:51.787Z,2.45
2023-05-10T21:03:18.485Z,3.38
2023-05-10T21:05:45.137Z,4.13
2023-05-10T21:08:11.732Z,2.67
2023-05-10T21:10:38.346Z,2.75
2023-05-10T21:13:05.001Z,2.60
2023-05-10T21:15:31.613Z,2.53
2023-05-10T21:17:58.665Z,2.25
2023-05-10T21:20:25.557Z,2.20
2023-05-10T21:22:52.178Z,3.17
2023-05-10T21:25:18.892Z,2.55
2023-05-10T21:27:45.926Z,2.90
2023-05-10T21:30:12.849Z,2.47
2023-05-10T21:32:39.518Z,2.33
2023-05-10T21:35:06.691Z,2.78
2023-05-10T21:37:33.353Z,2.47
2023-05-10T21:40:00.826Z,2.53
2023-05-10T21:42:27.492Z,2.70
2023-05-10T21:44:54.387Z,2.30
2023-05-10T21:47:20.992Z,3.15
2023-05-10T21:49:47.923Z,2.65
2023-05-10T21:52:17.078Z,2.30
2023-05-10T21:54:43.752Z,2.50
2023-05-10T21:57:10.319Z,2.63
2023-05-10T21:59:36.873Z,2.33
2023-05-10T22:02:03.724Z,2.58
2023-05-10T22:04:30.968Z,2.30
2023-05-10T22:06:57.574Z,2.83
2023-05-10T22:09:25.448Z,2.83
2023-05-10T22:11:52.160Z,2.63
2023-05-10T22:14:18.714Z,2.60
2023-05-10T22:16:45.473Z,2.70
2023-05-10T22:19:12.138Z,2.20
2023-05-10T22:21:38.743Z,2.58
2023-05-10T22:24:05.492Z,2.33
2023-05-10T22:26:32.116Z,2.13
2023-05-10T22:28:58.708Z,2.50
2023-05-10T22:31:25.498Z,2.42
2023-05-10T22:33:52.189Z,2.88
2023-05-10T22:36:18.790Z,2.50
2023-05-10T22:38:45.922Z,2.63
2023-05-10T22:41:12.750Z,2.72
2023-05-10T22:43:39.515Z,2.88
2023-05-10T22:46:06.089Z,2.70
2023-05-10T22:48:34.738Z,2.58
2023-05-10T22:51:01.460Z,2.80
2023-05-10T22:53:28.047Z,2.55
2023-05-10T22:55:54.716Z,3.42
2023-05-10T22:58:21.409Z,2.78
2023-05-10T23:00:47.999Z,2.70
2023-05-10T23:03:14.771Z,3.10
2023-05-10T23:05:41.387Z,2.50
2023-05-10T23:08:08.106Z,2.53
2023-05-10T23:10:34.698Z,3.10
2023-05-10T23:13:01.296Z,2.92
2023-05-10T23:15:27.866Z,2.85
2023-05-10T23:17:54.467Z,2.72
2023-05-10T23:20:21.495Z,3.10
2023-05-10T23:22:48.405Z,3.03
2023-05-10T23:25:15.012Z,2.90
2023-05-10T23:27:41.597Z,3.00
2023-05-10T23:30:08.799Z,2.60
2023-05-10T23:32:35.898Z,2.90
2023-05-10T23:35:02.556Z,3.25
2023-05-10T23:37:29.296Z,3.17
2023-05-10T23:39:55.944Z,3.60
2023-05-10T23:42:22.658Z,3.72
2023-05-10T23:44:50.931Z,3.25
2023-05-10T23:47:17.518Z,3.88
2023-05-10T23:49:44.168Z,3.63
2023-05-10T23:52:10.826Z,3.97
2023-05-10T23:54:37.509Z,3.90
2023-05-10T23:57:04.287Z,3.53
2023-05-10T23:59:31.331Z,3.85
